Time;durP1;ratioP1;P1;durP2;ratioP2;P2;SDS_P1;SDS_P2;PMS_P1;PMS_P2;Temp;Humidity;BMP_temperature;BMP_pressure;BME280_temperature;BME280_humidity;BME280_pressure;Samples;Min_cycle;Max_cycle;Signal;HPM_P1;HPM_P2
2021/11/23 00:00:47;;;;;;;3.70;2.03;;;;;;;;;;5063475;28;20037;-79
2021/11/23 00:03:16;;;;;;;4.72;2.40;;;;;;;;;;5066645;28;20033;-80
2021/11/23 00:05:44;;;;;;;3.13;2.20;;;;;;;;;;5063974;28;20081;-78
2021/11/23 00:08:10;;;;;;;3.63;2.30;;;;;;;;;;5049764;28;20441;-83
2021/11/23 00:10:39;;;;;;;5.13;2.60;;;;;;;;;;5056118;28;20088;-85
2021/11/23 00:13:09;;;;;;;4.18;2.22;;;;;;;;;;5041445;28;20075;-85
2021/11/23 00:15:35;;;;;;;5.60;2.40;;;;;;;;;;5049546;28;20022;-82
2021/11/23 00:18:12;;;;;;;5.72;2.28;;;;;;;;;;5042651;28;20029;-80
2021/11/23 00:20:40;;;;;;;4.43;2.60;;;;;;;;;;5052010;28;20080;-83
2021/11/23 00:23:06;;;;;;;4.88;2.47;;;;;;;;;;5050119;28;20112;-81
2021/11/23 00:25:33;;;;;;;3.80;2.35;;;;;;;;;;5057003;28;20033;-81
2021/11/23 00:27:59;;;;;;;4.20;2.40;;;;;;;;;;5035423;28;20029;-86
2021/11/23 00:30:35;;;;;;;3.88;2.13;;;;;;;;;;5038982;28;20093;-84
2021/11/23 00:33:01;;;;;;;4.60;2.40;;;;;;;;;;5033197;28;20036;-80
2021/11/23 00:35:30;;;;;;;5.72;2.58;;;;;;;;;;5050998;28;20037;-83
2021/11/23 00:37:57;;;;;;;6.32;2.80;;;;;;;;;;5030001;28;20056;-82
2021/11/23 00:40:26;;;;;;;6.35;2.65;;;;;;;;;;5051465;28;20604;-82
2021/11/23 00:42:52;;;;;;;4.78;2.60;;;;;;;;;;5035226;28;20033;-83
2021/11/23 00:45:19;;;;;;;6.80;2.80;;;;;;;;;;5037235;28;20074;-82
2021/11/23 00:47:45;;;;;;;6.35;2.50;;;;;;;;;;5036990;28;20049;-81
2021/11/23 00:50:15;;;;;;;7.05;2.85;;;;;;;;;;5035060;28;20718;-82
2021/11/23 00:52:41;;;;;;;4.32;2.25;;;;;;;;;;5036865;28;20112;-85
2021/11/23 00:55:08;;;;;;;5.78;2.83;;;;;;;;;;5055442;28;20075;-81
2021/11/23 00:57:34;;;;;;;5.82;2.70;;;;;;;;;;5032799;28;20022;-82
2021/11/23 01:00:00;;;;;;;5.10;2.70;;;;;;;;;;5033786;28;20110;-79
2021/11/23 01:02:27;;;;;;;5.53;2.60;;;;;;;;;;5049671;28;20029;-82
2021/11/23 01:04:53;;;;;;;6.68;2.75;;;;;;;;;;5051279;28;20040;-82
2021/11/23 01:07:22;;;;;;;7.70;2.70;;;;;;;;;;5039726;28;20048;-79
2021/11/23 01:09:48;;;;;;;5.30;2.63;;;;;;;;;;5056241;28;20148;-80
2021/11/23 01:12:26;;;;;;;4.57;2.70;;;;;;;;;;5055736;28;20043;-80
2021/11/23 01:14:55;;;;;;;6.25;2.97;;;;;;;;;;5039449;28;20033;-79
2021/11/23 01:17:24;;;;;;;4.45;2.92;;;;;;;;;;5032852;28;20052;-78
2021/11/23 01:19:50;;;;;;;6.95;2.85;;;;;;;;;;5033058;28;20369;-80
2021/11/23 01:22:19;;;;;;;6.07;3.20;;;;;;;;;;5053081;28;20028;-82
2021/11/23 01:24:53;;;;;;;6.13;2.70;;;;;;;;;;5032283;28;20136;-85
2021/11/23 01:27:19;;;;;;;8.20;2.72;;;;;;;;;;5024432;28;20144;-79
2021/11/23 01:29:46;;;;;;;6.35;3.00;;;;;;;;;;5050438;28;20028;-84
2021/11/23 01:32:15;;;;;;;5.07;2.50;;;;;;;;;;5049054;28;20033;-78
2021/11/23 01:34:44;;;;;;;5.18;2.88;;;;;;;;;;5035166;28;21269;-81
2021/11/23 01:37:10;;;;;;;5.70;2.70;;;;;;;;;;5050891;28;20025;-79
2021/11/23 01:39:36;;;;;;;5.90;2.83;;;;;;;;;;5039333;28;20116;-82
2021/11/23 01:42:02;;;;;;;4.38;2.70;;;;;;;;;;5049290;28;20040;-82
2021/11/23 01:44:28;;;;;;;4.07;2.40;;;;;;;;;;5052345;28;20107;-81
2021/11/23 01:46:55;;;;;;;6.68;2.85;;;;;;;;;;5050947;28;20056;-81
2021/11/23 01:49:21;;;;;;;7.05;3.42;;;;;;;;;;5052263;28;20029;-78
2021/11/23 01:51:49;;;;;;;5.78;2.88;;;;;;;;;;5033450;28;20097;-82
2021/11/23 01:54:19;;;;;;;5.10;2.92;;;;;;;;;;5035180;28;20035;-80
2021/11/23 01:56:45;;;;;;;5.43;2.60;;;;;;;;;;5043003;28;20017;-81
2021/11/23 01:59:13;;;;;;;4.38;2.33;;;;;;;;;;5040422;28;20033;-81
2021/11/23 02:01:42;;;;;;;5.20;2.50;;;;;;;;;;5037442;28;20029;-81
2021/11/23 02:04:09;;;;;;;5.18;2.70;;;;;;;;;;5034244;28;20040;-78
2021/11/23 02:06:35;;;;;;;4.72;2.50;;;;;;;;;;5050939;28;20063;-83
2021/11/23 02:09:05;;;;;;;4.80;2.78;;;;;;;;;;5047308;28;20045;-77
2021/11/23 02:11:31;;;;;;;4.03;2.72;;;;;;;;;;5036067;28;20033;-80
2021/11/23 02:14:00;;;;;;;5.00;2.55;;;;;;;;;;5047940;28;20112;-81
2021/11/23 02:16:26;;;;;;;7.40;2.97;;;;;;;;;;5063971;28;20025;-83
2021/11/23 02:18:52;;;;;;;5.45;2.85;;;;;;;;;;5052270;28;20049;-82
2021/11/23 02:21:21;;;;;;;5.95;2.65;;;;;;;;;;5064673;28;20041;-85
2021/11/23 02:23:47;;;;;;;4.65;2.55;;;;;;;;;;5036816;28;20030;-81
2021/11/23 02:26:22;;;;;;;4.25;2.80;;;;;;;;;;5047313;28;20097;-81
2021/11/23 02:28:48;;;;;;;5.22;2.78;;;;;;;;;;5046831;28;20053;-82
2021/11/23 02:31:14;;;;;;;5.93;2.70;;;;;;;;;;5042584;28;20036;-84
2021/11/23 02:33:41;;;;;;;5.10;2.63;;;;;;;;;;5046274;28;20033;-81
2021/11/23 02:36:08;;;;;;;6.07;3.20;;;;;;;;;;5042076;28;20029;-81
2021/11/23 02:38:35;;;;;;;4.75;3.05;;;;;;;;;;5048865;28;20031;-79
2021/11/23 02:41:02;;;;;;;4.90;3.05;;;;;;;;;;5059427;28;20129;-81
2021/11/23 02:43:31;;;;;;;3.92;2.70;;;;;;;;;;5046581;28;20025;-80
2021/11/23 02:46:03;;;;;;;7.28;3.53;;;;;;;;;;5038985;28;20096;-82
2021/11/23 02:48:29;;;;;;;5.80;3.10;;;;;;;;;;5051897;28;20498;-81
2021/11/23 02:53:31;;;;;;;5.95;3.38;;;;;;;;;;5047461;28;20091;-79
2021/11/23 02:55:58;;;;;;;7.57;3.65;;;;;;;;;;5043846;28;20045;-81
2021/11/23 02:58:24;;;;;;;5.47;3.40;;;;;;;;;;5053492;28;20095;-81
2021/11/23 03:00:50;;;;;;;7.43;3.30;;;;;;;;;;5055957;28;20034;-81
2021/11/23 03:03:16;;;;;;;6.20;3.47;;;;;;;;;;5054229;28;20079;-81
2021/11/23 03:05:42;;;;;;;5.93;3.40;;;;;;;;;;5055339;28;20037;-82
2021/11/23 03:08:11;;;;;;;6.50;3.38;;;;;;;;;;5054576;28;20115;-80
2021/11/23 03:10:38;;;;;;;4.88;3.33;;;;;;;;;;5052777;28;20037;-79
2021/11/23 03:13:04;;;;;;;4.40;2.97;;;;;;;;;;5055770;28;20037;-82
2021/11/23 03:15:31;;;;;;;11.75;3.17;;;;;;;;;;5059593;28;20024;-79
2021/11/23 03:17:57;;;;;;;6.40;3.28;;;;;;;;;;5049538;28;20044;-83
2021/11/23 03:20:27;;;;;;;5.97;3.58;;;;;;;;;;5044363;28;20410;-83
2021/11/23 03:22:55;;;;;;;7.50;3.60;;;;;;;;;;5043453;28;20030;-80
2021/11/23 03:25:21;;;;;;;9.57;3.55;;;;;;;;;;5055537;28;20036;-81
2021/11/23 03:27:47;;;;;;;6.57;3.45;;;;;;;;;;5054742;28;20029;-80
2021/11/23 03:30:15;;;;;;;8.73;3.85;;;;;;;;;;5046100;28;20037;-79
2021/11/23 03:32:41;;;;;;;6.05;3.08;;;;;;;;;;5056442;28;20651;-82
2021/11/23 03:35:07;;;;;;;5.05;3.30;;;;;;;;;;5048773;28;20024;-82
2021/11/23 03:37:34;;;;;;;5.40;2.85;;;;;;;;;;5053692;28;20028;-81
2021/11/23 03:40:00;;;;;;;5.63;2.78;;;;;;;;;;5039834;28;20079;-82
2021/11/23 03:42:29;;;;;;;6.68;3.05;;;;;;;;;;5052862;28;20028;-80
2021/11/23 03:44:59;;;;;;;4.72;2.95;;;;;;;;;;5051697;28;20033;-80
2021/11/23 03:47:30;;;;;;;5.28;3.08;;;;;;;;;;5051701;28;20056;-79
2021/11/23 03:49:57;;;;;;;7.35;2.95;;;;;;;;;;5038175;28;20030;-78
2021/11/23 03:52:24;;;;;;;6.43;3.60;;;;;;;;;;5054556;28;20394;-82
2021/11/23 03:54:50;;;;;;;7.50;3.60;;;;;;;;;;5038166;28;20058;-80
2021/11/23 03:57:16;;;;;;;4.32;2.72;;;;;;;;;;5053118;28;20060;-82
2021/11/23 03:59:46;;;;;;;4.30;2.45;;;;;;;;;;5052629;28;20025;-80
2021/11/23 04:02:13;;;;;;;6.68;3.53;;;;;;;;;;5048595;28;20021;-82
2021/11/23 04:04:39;;;;;;;6.85;3.33;;;;;;;;;;5033062;28;20033;-78
2021/11/23 04:07:05;;;;;;;7.32;3.35;;;;;;;;;;5062672;23;20040;-82
2021/11/23 04:09:31;;;;;;;5.53;3.33;;;;;;;;;;5027756;28;20044;-81
2021/11/23 04:11:57;;;;;;;5.50;3.28;;;;;;;;;;5030989;28;20038;-81
2021/11/23 04:14:26;;;;;;;8.80;3.60;;;;;;;;;;5046189;28;20044;-83
2021/11/23 04:16:55;;;;;;;6.75;3.58;;;;;;;;;;5024476;28;20079;-80
2021/11/23 04:19:21;;;;;;;5.55;2.95;;;;;;;;;;5021674;28;20040;-80
2021/11/23 04:21:47;;;;;;;4.60;2.83;;;;;;;;;;5016559;28;20040;-81
2021/11/23 04:24:13;;;;;;;8.15;3.20;;;;;;;;;;5039784;28;20044;-85
2021/11/23 04:26:40;;;;;;;8.25;3.38;;;;;;;;;;5012387;28;20044;-82
2021/11/23 04:29:06;;;;;;;5.68;3.42;;;;;;;;;;5019607;28;20101;-83
2021/11/23 04:31:32;;;;;;;6.72;3.53;;;;;;;;;;5022923;28;20030;-83
2021/11/23 04:33:58;;;;;;;5.70;3.40;;;;;;;;;;5022939;28;20109;-85
2021/11/23 04:36:25;;;;;;;6.18;3.38;;;;;;;;;;5018904;28;20053;-83
2021/11/23 04:38:51;;;;;;;6.05;3.00;;;;;;;;;;5024466;28;20036;-84
2021/11/23 04:41:17;;;;;;;6.72;3.30;;;;;;;;;;5023089;28;20041;-82
2021/11/23 04:43:43;;;;;;;6.50;3.40;;;;;;;;;;5017936;28;20466;-80
2021/11/23 04:46:13;;;;;;;6.10;3.08;;;2.40;99.90;;;;;;5019637;28;20157;-84
2021/11/23 04:48:39;;;;;;;7.90;3.38;;;;;;;;;;5012109;28;20025;-83
2021/11/23 04:51:06;;;;;;;6.13;3.33;;;;;;;;;;5039877;28;20056;-82
2021/11/23 04:53:32;;;;;;;6.93;3.35;;;;;;;;;;5019529;28;20068;-81
2021/11/23 04:55:58;;;;;;;7.05;4.10;;;;;;;;;;5016482;28;20482;-80
2021/11/23 04:58:26;;;;;;;8.38;3.47;;;;;;;;;;5018546;28;20056;-81
2021/11/23 05:00:53;;;;;;;7.38;3.53;;;;;;;;;;5019133;28;20482;-82
2021/11/23 05:03:19;;;;;;;5.38;3.55;;;;;;;;;;5020025;28;20370;-82
2021/11/23 05:05:45;;;;;;;5.32;3.10;;;;;;;;;;5019544;28;20033;-83
2021/11/23 05:08:11;;;;;;;9.35;4.40;;;;;;;;;;5017614;28;20084;-83
2021/11/23 05:10:38;;;;;;;7.40;4.03;;;;;;;;;;5018883;28;20079;-83
2021/11/23 05:13:04;;;;;;;5.40;3.35;;;;;;;;;;5018208;28;20033;-81
2021/11/23 05:15:30;;;;;;;10.07;4.57;;;;;;;;;;5013913;28;20123;-82
2021/11/23 05:17:56;;;;;;;6.35;3.00;;;;;;;;;;5020067;28;20120;-82
2021/11/23 05:20:23;;;;;;;6.65;3.13;;;;;;;;;;5029440;28;20029;-82
2021/11/23 05:22:49;;;;;;;6.97;2.85;;;;;;;;;;5032368;28;20041;-82
2021/11/23 05:25:15;;;;;;;9.68;3.45;;;;;;;;;;5002115;28;20026;-81
2021/11/23 05:27:41;;;;;;;4.90;2.72;;;;;;;;;;5028073;28;20085;-82
2021/11/23 05:30:08;;;;;;;3.88;2.75;;;;;;;;;;5013295;28;20498;-82
2021/11/23 05:32:34;;;;;;;6.65;3.47;;;;;;;;;;5017145;28;20138;-84
2021/11/23 05:35:00;;;;;;;8.00;3.10;;;;;;;;;;5019742;28;20037;-83
2021/11/23 05:37:26;;;;;;;5.53;2.78;;;;;;;;;;5014446;28;20030;-82
2021/11/23 05:39:52;;;;;;;4.90;3.03;;;;;;;;;;5032564;28;20029;-82
2021/11/23 05:42:18;;;;;;;4.35;2.38;;;;;;;;;;5007411;28;20049;-83
2021/11/23 05:44:45;;;;;;;5.07;2.72;;;;;;;;;;5017378;28;20067;-83
2021/11/23 05:47:11;;;;;;;6.22;2.95;;;;;;;;;;5012666;28;20038;-84
2021/11/23 05:49:37;;;;;;;7.88;3.30;;;;;;;;;;5007220;28;20022;-84
2021/11/23 05:52:03;;;;;;;4.78;2.70;;;;;;;;;;5010287;28;20045;-83
2021/11/23 05:54:29;;;;;;;5.53;2.70;;;;;;;;;;5008556;28;20432;-85
2021/11/23 05:56:55;;;;;;;5.50;2.90;;;;;;;;;;5014640;28;20029;-82
2021/11/23 05:59:21;;;;;;;5.88;2.67;;;;;;;;;;5010632;28;20025;-81
2021/11/23 06:01:48;;;;;;;5.32;2.72;;;;;;;;;;5031405;28;20037;-81
2021/11/23 06:04:17;;;;;;;5.85;3.60;;;;;;;;;;5029816;28;20079;-80
2021/11/23 06:06:46;;;;;;;4.93;2.78;;;;;;;;;;5031725;22;20100;-79
2021/11/23 06:09:12;;;;;;;5.40;3.08;;;;;;;;;;5015649;28;20035;-80
2021/11/23 06:11:38;;;;;;;6.63;2.88;;;;;;;;;;5014924;28;20029;-80
2021/11/23 06:14:05;;;;;;;6.07;2.60;;;;;;;;;;5015643;28;20463;-80
2021/11/23 06:16:32;;;;;;;5.35;3.00;;;;;;;;;;5009773;28;20030;-81
2021/11/23 06:18:58;;;;;;;7.20;3.30;;;;;;;;;;5012132;28;21037;-80
2021/11/23 06:21:26;;;;;;;4.18;2.80;;;;;;;;;;5011962;28;20053;-82
2021/11/23 06:23:53;;;;;;;7.43;3.33;;;;;;;;;;5014477;28;20045;-81
2021/11/23 06:26:19;;;;;;;7.13;3.05;;;;;;;;;;5014346;28;20037;-80
2021/11/23 06:28:48;;;;;;;6.85;3.45;;;;;;;;;;5031257;28;20059;-80
2021/11/23 06:31:15;;;;;;;6.55;3.03;;;;;;;;;;5003394;28;20038;-82
2021/11/23 06:33:41;;;;;;;6.88;3.45;;;;;;;;;;5025354;28;20063;-82
2021/11/23 06:36:07;;;;;;;6.18;3.03;;;;;;;;;;5040925;28;20038;-82
2021/11/23 06:38:33;;;;;;;5.32;3.45;;;;;;;;;;5035518;28;20099;-80
2021/11/23 06:41:00;;;;;;;5.03;3.22;;;;;;;;;;5025697;28;20030;-83
2021/11/23 06:43:26;;;;;;;5.60;2.92;;;;;;;;;;5035633;28;20555;-80
2021/11/23 06:45:55;;;;;;;5.55;2.92;;;;;;;;;;5033557;28;20463;-77
2021/11/23 06:48:21;;;;;;;5.80;2.90;;;;;;;;;;5017867;28;20083;-81
2021/11/23 06:50:47;;;;;;;4.50;2.97;;;;;;;;;;5022520;28;20032;-79
2021/11/23 06:53:13;;;;;;;7.93;2.97;;;;;;;;;;5023456;28;20038;-79
2021/11/23 06:55:40;;;;;;;6.95;3.45;;;;;;;;;;5014868;28;20036;-80
2021/11/23 06:58:07;;;;;;;5.80;3.33;;;;;;;;;;5018702;28;20064;-79
2021/11/23 07:00:33;;;;;;;5.72;2.72;;;;;;;;;;5020037;28;20036;-79
2021/11/23 07:02:59;;;;;;;9.70;3.25;;;;;;;;;;5013358;28;20105;-79
2021/11/23 07:05:25;;;;;;;5.82;2.90;;;;;;;;;;5035524;28;20032;-80
2021/11/23 07:07:52;;;;;;;8.27;3.10;;;;;;;;;;5029023;28;20034;-79
2021/11/23 07:10:18;;;;;;;4.65;2.75;;;;;;;;;;5017766;28;20022;-82
2021/11/23 07:12:44;;;;;;;4.70;2.63;;;;;;;;;;5012549;28;20029;-80
2021/11/23 07:15:11;;;;;;;5.07;2.90;;;;;;;;;;5016658;28;20029;-81
2021/11/23 07:17:37;;;;;;;5.80;2.90;;;;;;;;;;5010529;28;20049;-82
2021/11/23 07:20:04;;;;;;;7.38;3.03;;;;;;;;;;5018843;28;20097;-81
2021/11/23 07:22:30;;;;;;;7.32;3.13;;;;;;;;;;5032499;28;20021;-82
2021/11/23 07:24:56;;;;;;;7.28;2.95;;;;;;;;;;5026808;28;21819;-82
2021/11/23 07:27:22;;;;;;;7.53;3.13;;;;;;;;;;5031614;28;20030;-81
2021/11/23 07:29:48;;;;;;;5.88;2.60;;;;;;;;;;5013397;28;20096;-82
2021/11/23 07:32:14;;;;;;;7.65;2.97;;;;;;;;;;5011000;28;20089;-85
2021/11/23 07:34:41;;;;;;;6.88;2.55;;;;;;;;;;5020657;28;20093;-82
2021/11/23 07:37:07;;;;;;;8.13;2.35;;;;;;;;;;5018257;28;20037;-79
2021/11/23 07:39:34;;;;;;;6.68;3.00;;;;;;;;;;5038109;28;20026;-83
2021/11/23 07:42:00;;;;;;;3.78;2.47;;;;;;;;;;5022047;28;20031;-80
2021/11/23 07:44:26;;;;;;;4.53;2.20;;;;;;;;;;5016170;28;20022;-81
2021/11/23 07:46:53;;;;;;;3.70;2.33;;;;;;;;;;5014019;28;20065;-83
2021/11/23 07:49:21;;;;;;;4.32;2.40;;;;;;;;;;5041374;28;20028;-80
2021/11/23 07:51:47;;;;;;;5.53;2.50;;;;;;;;;;5012714;28;20030;-81
2021/11/23 07:54:14;;;;;;;9.40;2.63;;;;;;;;;;5023812;28;20101;-79
2021/11/23 07:56:40;;;;;;;8.52;2.70;;;;;;;;;;5012919;28;20040;-81
2021/11/23 07:59:07;;;;;;;8.65;2.60;;;;;;;;;;5015854;28;20025;-80
2021/11/23 08:01:33;;;;;;;5.57;2.28;;;;;;;;;;5008179;28;20060;-80
2021/11/23 08:04:00;;;;;;;6.15;2.67;;;;;;;;;;5014294;28;20061;-81
2021/11/23 08:06:26;;;;;;;15.75;3.53;;;;;;;;;;5009686;28;20046;-82
2021/11/23 08:08:52;;;;;;;4.88;2.67;;;;;;;;;;5020561;28;20085;-80
2021/11/23 08:11:18;;;;;;;4.38;2.42;;;;;;;;;;5015014;28;20037;-80
2021/11/23 08:13:44;;;;;;;5.03;2.67;;;;;;;;;;5012054;28;20033;-81
2021/11/23 08:16:10;;;;;;;7.63;2.55;;;;;;;;;;5013453;28;20163;-83
2021/11/23 08:18:37;;;;;;;7.05;2.50;;;;;;;;;;5009365;28;20029;-82
2021/11/23 08:21:04;;;;;;;4.53;2.20;;;;;;;;;;5017829;28;20063;-81
2021/11/23 08:23:30;;;;;;;6.10;2.53;;;;;;;;;;5010159;28;20052;-82
2021/11/23 08:25:59;;;;;;;4.95;2.35;;;;;;;;;;5012042;28;20029;-80
2021/11/23 08:28:27;;;;;;;5.35;2.40;;;;;;;;;;5022926;28;20029;-80
2021/11/23 08:30:55;;;;;;;5.90;2.28;;;;;;;;;;5026854;28;20068;-83
2021/11/23 08:33:22;;;;;;;4.45;2.30;;;;;;;;;;5018957;28;20454;-81
2021/11/23 08:35:48;;;;;;;4.32;2.05;;;;;;;;;;5041500;28;20051;-81
2021/11/23 08:41:00;;;;;;;4.05;2.05;;;;;;;;;;5141273;27;20914;-81
2021/11/23 08:43:30;;;;;;;6.00;2.38;;;;;;;;;;5093145;28;20028;-81
2021/11/23 08:45:59;;;;;;;5.03;2.30;;;;;;;;;;5117287;28;20508;-82
2021/11/23 08:48:25;;;;;;;4.25;2.20;;;;;;;;;;5106924;28;20081;-81
2021/11/23 08:50:51;;;;;;;4.15;2.00;;;;;;;;;;5094918;28;20035;-80
2021/11/23 08:53:17;;;;;;;6.95;2.15;;;;;;;;;;5074540;28;20489;-80
2021/11/23 08:55:44;;;;;;;5.38;2.10;;;;;;;;;;5079480;28;20091;-82
2021/11/23 08:58:10;;;;;;;4.53;2.20;;;;;;;;;;5083703;28;20028;-82
2021/11/23 09:00:37;;;;;;;7.32;2.13;;;;;;;;;;5095733;28;20048;-83
2021/11/23 09:03:04;;;;;;;3.55;2.17;;;;;;;;;;5098058;28;20059;-80
2021/11/23 09:05:32;;;;;;;4.88;2.00;;;;;;;;;;5083330;28;20039;-79
2021/11/23 09:08:00;;;;;;;3.60;2.30;;;;;;;;;;5073502;28;20088;-81
2021/11/23 09:10:27;;;;;;;3.35;1.90;;;;;;;;;;5080868;28;20028;-83
2021/11/23 09:12:55;;;;;;;4.93;1.88;;;;;;;;;;5076582;28;20050;-81
2021/11/23 09:15:22;;;;;;;4.72;2.00;;;;;;;;;;5067983;28;20016;-82
2021/11/23 09:17:48;;;;;;;4.05;2.05;;;;;;;;;;5052069;28;21447;-82
2021/11/23 09:20:15;;;;;;;6.47;1.92;;;;;;;;;;5063406;28;20717;-80
2021/11/23 09:22:41;;;;;;;2.97;1.52;;;;;;;;;;5061545;28;20028;-78
2021/11/23 09:28:01;;;;;;;2.75;1.50;;;;;;;;;;5078885;28;20546;-81
2021/11/23 09:30:29;;;;;;;2.67;1.50;;;;;;;;;;5088351;28;20105;-80
2021/11/23 09:32:55;;;;;;;3.05;1.50;;;;;;;;;;5077616;28;20032;-78
2021/11/23 09:35:22;;;;;;;2.47;1.50;;;;;;;;;;5070774;28;20024;-83
2021/11/23 09:37:51;;;;;;;2.67;1.50;;;;;;;;;;5077019;28;20024;-79
2021/11/23 09:40:18;;;;;;;3.20;1.35;;;;;;;;;;5090621;28;20028;-82
2021/11/23 09:42:45;;;;;;;3.75;1.63;;;;;;;;;;5084888;28;20375;-81
2021/11/23 09:45:17;;;;;;;3.67;1.63;;;;;;;;;;5073257;28;20013;-80
2021/11/23 09:47:43;;;;;;;3.58;1.40;;;;;;;;;;5069309;28;20562;-81
2021/11/23 09:50:10;;;;;;;3.63;1.40;;;;;;;;;;5068724;28;20421;-79
2021/11/23 09:52:36;;;;;;;2.55;1.48;;;;;;;;;;5056370;28;20032;-82
2021/11/23 09:55:07;;;;;;;3.00;1.33;;;;;;;;;;5047026;28;20043;-81
2021/11/23 09:57:33;;;;;;;2.67;1.48;;;;;;;;;;5062683;28;20024;-79
2021/11/23 09:59:59;;;;;;;3.63;1.60;;;;;;;;;;5053367;28;20419;-82
2021/11/23 10:02:33;;;;;;;2.17;1.02;;;;;;;;;;5051849;28;20032;-81
2021/11/23 10:05:04;;;;;;;2.15;1.33;;;;;;;;;;5071156;28;20055;-78
2021/11/23 10:07:34;;;;;;;4.88;1.50;;;;;;;;;;5064260;22;20046;-82
2021/11/23 10:10:10;;;;;;;5.60;1.50;;;;;;;;;;5018511;28;20065;-81
2021/11/23 10:12:36;;;;;;;3.70;1.50;;;;;;;;;;5029100;28;20510;-85
2021/11/23 10:15:12;;;;;;;1.88;1.10;;;;;;;;;;5031824;28;20028;-80
2021/11/23 10:17:39;;;;;;;5.75;1.65;;;;;;;;;;5053178;28;20477;-80
2021/11/23 10:20:06;;;;;;;4.30;1.60;;;;;;;;;;5050010;28;20452;-83
2021/11/23 10:25:05;;;;;;;2.40;1.35;;;;;;;;;;5013199;28;20045;-82
2021/11/23 10:27:31;;;;;;;;;;;;;;;;;;4988379;28;20490;-81
2021/11/23 10:30:00;;;;;;;1.73;1.10;;;;;;;;;;5014549;23;19929;-81
2021/11/23 10:32:26;;;;;;;1.92;1.00;;;;;;;;;;5011020;28;20026;-80
2021/11/23 10:34:52;;;;;;;3.35;1.10;;;;;;;;;;5009471;28;20045;-80
2021/11/23 10:37:35;;;;;;;3.63;1.20;;;;;;;;;;4999144;28;20023;-79
2021/11/23 10:40:16;;;;;;;2.08;1.02;;;;;;;;;;5001166;28;20030;-79
2021/11/23 10:42:43;;;;;;;4.53;1.17;;;;;;;;;;4986951;28;20085;-82
2021/11/23 10:45:10;;;;;;;3.03;1.30;;;;;;;;;;4972355;28;20041;-79
2021/11/23 10:47:38;;;;;;;3.05;1.13;;;;;;;;;;4996077;28;20058;-80
2021/11/23 10:52:52;;;;;;;7.93;1.42;;;;;;;;;;4942844;29;20012;-81
2021/11/23 10:58:28;;;;;;;4.07;1.10;;;;;;;;;;4995760;28;20080;-81
2021/11/23 11:00:54;;;;;;;3.92;1.00;;;;;;;;;;5013103;28;20031;-85
2021/11/23 11:03:25;;;;;;;2.45;1.10;;;;;;;;;;5012172;28;20041;-83
2021/11/23 11:05:54;;;;;;;2.25;1.20;;;;;;;;;;4990414;28;20030;-84
2021/11/23 11:08:22;;;;;;;2.80;1.05;;;;;;;;;;5002174;28;20035;-83
2021/11/23 11:10:51;;;;;;;1.80;1.05;;;;;;;;;;4996021;28;20179;-81
2021/11/23 11:13:21;;;;;;;2.95;1.23;;;;;;;;;;4985852;28;20561;-81
2021/11/23 11:15:52;;;;;;;4.20;1.10;;;;;;;;;;4985184;28;20181;-82
2021/11/23 11:18:20;;;;;;;1.77;0.98;;;;;;;;;;4978508;28;20397;-82
2021/11/23 11:20:52;;;;;;;3.97;1.00;;;;;;;;;;4990821;28;20106;-84
2021/11/23 11:23:23;;;;;;;1.30;0.73;;;;;;;;;;4987797;28;20026;-82
2021/11/23 11:25:57;;;;;;;1.67;0.88;;;;;;;;;;4985669;28;20484;-82
2021/11/23 11:28:37;;;;;;;0.93;0.68;;;;;;;;;;4991481;28;20037;-81
2021/11/23 11:31:11;;;;;;;5.60;1.23;;;;;;;;;;4992422;28;20577;-80
2021/11/23 11:33:40;;;;;;;3.67;1.10;;;;;;;;;;4993092;28;20041;-81
2021/11/23 11:36:07;;;;;;;1.10;0.73;;;;;;;;;;4998707;28;20038;-80
2021/11/23 11:38:38;;;;;;;2.50;1.08;;;;;;;;;;5001067;28;20077;-80
2021/11/23 11:41:08;;;;;;;5.70;1.02;;;;;;;;;;5001947;28;20022;-81
2021/11/23 11:43:36;;;;;;;1.55;0.90;;;;;;;;;;4996626;28;20125;-81
2021/11/23 11:46:02;;;;;;;2.00;1.05;;;;;;;;;;4999083;28;20073;-80
2021/11/23 11:48:38;;;;;;;3.42;0.85;;;;;;;;;;4998862;28;20057;-84
2021/11/23 11:51:06;;;;;;;2.38;0.90;;;;;;;;;;5003190;28;20041;-82
2021/11/23 11:53:36;;;;;;;0.93;0.70;;;;;;;;;;5010424;28;20030;-82
2021/11/23 11:56:02;;;;;;;3.08;0.93;;;;;;;;;;4999959;28;20055;-82
2021/11/23 11:58:50;;;;;;;1.30;0.80;;;;;;;;;;5003249;28;20072;-81
2021/11/23 12:01:19;;;;;;;1.13;0.70;;;;;;;;;;4997023;28;20030;-83
2021/11/23 12:03:59;;;;;;;1.48;0.73;;;;;;;;;;4994811;28;20487;-81
2021/11/23 12:06:46;;;;;;;3.58;0.88;;;;;;;;;;4998718;28;20109;-81
2021/11/23 12:09:28;;;;;;;2.22;0.90;;;;;;;;;;4987077;28;20052;-81
2021/11/23 12:12:17;;;;;;;2.42;0.80;;;;;;;;;;4995371;28;20388;-82
2021/11/23 12:14:57;;;;;;;3.60;1.10;;;;;;;;;;4981081;28;20050;-80
2021/11/23 12:17:27;;;;;;;3.00;0.90;;;;;;;;;;4988748;28;20493;-82
2021/11/23 12:20:07;;;;;;;1.80;0.70;;;;;;;;;;4998302;28;20103;-81
2021/11/23 12:22:48;;;;;;;2.10;0.70;;;;;;;;;;4996171;28;20280;-81
2021/11/23 12:25:21;;;;;;;2.22;0.88;;;;;;;;;;4994401;28;20443;-83
2021/11/23 12:27:51;;;;;;;3.05;0.98;;;;;;;;;;4998677;28;20035;-82
2021/11/23 12:30:23;;;;;;;1.05;0.55;;;;;;;;;;4996155;28;20026;-82
2021/11/23 12:32:54;;;;;;;4.20;0.80;;;;;;;;;;4999675;28;20091;-86
2021/11/23 12:35:23;;;;;;;1.13;0.68;;;;;;;;;;4999177;28;20038;-83
2021/11/23 12:37:50;;;;;;;1.13;0.55;;;;;;;;;;4997780;28;20540;-79
2021/11/23 12:40:22;;;;;;;6.63;1.98;;;;;;;;;;4997997;28;20042;-84
2021/11/23 12:42:52;;;;;;;1.60;0.88;;;;;;;;;;5005022;28;20045;-85
2021/11/23 12:45:19;;;;;;;3.35;0.80;;;;;;;;;;4997793;28;20027;-82
2021/11/23 12:47:49;;;;;;;2.88;0.70;;;;;;;;;;5003712;28;20070;-81
2021/11/23 12:50:15;;;;;;;2.42;0.77;;;;;;;;;;5001668;28;20118;-82
2021/11/23 12:52:41;;;;;;;2.35;0.88;;;;;;;;;;4999849;28;20029;-82
2021/11/23 12:55:07;;;;;;;1.40;0.80;;;;;;;;;;4995897;28;20038;-82
2021/11/23 12:57:33;;;;;;;1.50;0.90;;;;;;;;;;4996779;28;20026;-83
2021/11/23 13:00:16;;;;;;;4.05;1.08;;;;;;;;;;4996080;28;20101;-81
2021/11/23 13:02:45;;;;;;;6.32;0.85;;;;;;;;;;4999226;28;20027;-82
2021/11/23 13:05:26;;;;;;;7.45;1.30;;;;;;;;;;4997010;28;20022;-85
2021/11/23 13:08:05;;;;;;;4.63;1.05;;;;;;;;;;4999087;28;20480;-81
2021/11/23 13:10:32;;;;;;;2.05;0.80;;;;;;;;;;5002784;28;20060;-81
2021/11/23 13:13:00;;;;;;;1.38;0.80;;;;;;;;;;4998154;28;20022;-81
2021/11/23 13:15:32;;;;;;;1.58;0.60;;;;;;;;;;4997732;28;20045;-83
2021/11/23 13:18:04;;;;;;;3.38;0.82;;;;;;;;;;4994322;28;20472;-81
2021/11/23 13:20:35;;;;;;;3.22;0.93;;;;;;;;;;4999850;28;20051;-83
2021/11/23 13:23:08;;;;;;;0.73;0.50;;;;;;;;;;4995494;28;20042;-79
2021/11/23 13:25:34;;;;;;;2.90;0.85;;;;;;;;;;4997722;28;20058;-81
2021/11/23 13:28:00;;;;;;;2.22;0.65;;;;;;;;;;4999038;28;20031;-81
2021/11/23 13:30:49;;;;;;;4.32;1.20;;;;;;;;;;5001896;28;20030;-84
2021/11/23 13:33:17;;;;;;;2.42;0.70;;;;;;;;;;4999649;28;20138;-81
2021/11/23 13:36:17;;;;;;;2.95;1.00;;;;;;;;;;4999281;28;20022;-82
2021/11/23 13:38:51;;;;;;;1.27;0.77;;;;;;;;;;4980461;28;20452;-81
2021/11/23 13:41:30;;;;;;;2.00;0.93;;;;;;;;;;5008012;28;20030;-82
2021/11/23 13:44:06;;;;;;;2.97;0.70;;;;;;;;;;5010780;28;20081;-84
2021/11/23 13:46:45;;;;;;;1.85;0.70;;;;;;;;;;5006065;28;20022;-81
2021/11/23 13:49:13;;;;;;;7.80;1.20;;;;;;;;;;5010122;28;20023;-83
2021/11/23 13:51:39;;;;;;;4.15;1.20;;;;;;;;;;5014507;28;20049;-81
2021/11/23 13:54:10;;;;;;;3.80;0.80;;;;;;;;;;5006996;28;20033;-81
2021/11/23 13:56:38;;;;;;;2.03;0.95;;;;;;;;;;5004522;28;20026;-80
2021/11/23 13:59:06;;;;;;;6.07;1.05;;;;;;;;;;4999019;28;20032;-81
2021/11/23 14:01:50;;;;;;;4.82;0.93;;;;;;;;;;5005887;28;20030;-84
2021/11/23 14:04:19;;;;;;;1.58;0.70;;;;;;;;;;5013731;28;20060;-83
2021/11/23 14:07:19;;;;;;;2.25;1.48;;;;;;;;;;5021265;22;20046;-81
2021/11/23 14:09:46;;;;;;;2.53;0.82;;;;;;;;;;4989817;28;20068;-78
2021/11/23 14:12:17;;;;;;;5.97;1.10;;;;;;;;;;5019927;28;20052;-80
2021/11/23 14:15:00;;;;;;;5.60;1.20;;;;;;;;;;5039047;28;20096;-80
2021/11/23 14:17:45;;;;;;;6.95;1.40;;;;;;;;;;5024459;28;20144;-81
2021/11/23 14:20:12;;;;;;;3.17;1.17;;;;;;;;;;5021643;28;20032;-79
2021/11/23 14:22:42;;;;;;;4.43;1.73;;;;;;;;;;5024945;28;20026;-79
2021/11/23 14:25:18;;;;;;;2.90;0.90;;;;;;;;;;5024886;28;20025;-81
2021/11/23 14:27:48;;;;;;;2.10;0.65;;;;;;;;;;5035356;28;20068;-81
2021/11/23 14:30:22;;;;;;;2.20;0.98;;;;;;;;;;5017024;28;20079;-80
2021/11/23 14:32:49;;;;;;;2.28;0.73;;;;;;;;;;5011867;28;20241;-81
2021/11/23 14:35:15;;;;;;;3.35;0.70;;;;;;;;;;5032404;28;20022;-80
2021/11/23 14:37:41;;;;;;;2.67;0.63;;;;;;;;;;5022791;28;20072;-82
2021/11/23 14:40:09;;;;;;;1.60;0.70;;;;;;;;;;5019589;28;20029;-79
2021/11/23 14:42:35;;;;;;;2.90;0.90;;;;;;;;;;5035339;28;20026;-82
2021/11/23 14:45:03;;;;;;;4.07;1.00;;;;;;;;;;5030405;28;20525;-83
2021/11/23 14:47:30;;;;;;;3.65;0.90;;;;;;;;;;5017823;28;20128;-84
2021/11/23 14:49:58;;;;;;;2.47;0.80;;;;;;;;;;5025651;28;20036;-83
2021/11/23 14:52:29;;;;;;;4.47;0.98;;;;;;;;;;5016515;28;20414;-83
2021/11/23 14:55:00;;;;;;;3.53;0.75;;;;;;;;;;5034542;28;20033;-82
2021/11/23 14:57:29;;;;;;;1.00;0.52;;;7.70;93.50;;;;;;5014643;28;20080;-82
2021/11/23 14:59:58;;;;;;;2.55;0.60;;;;;;;;;;5029251;28;20022;-81
2021/11/23 15:02:28;;;;;;;3.38;0.82;;;;;;;;;;5024848;28;20025;-79
2021/11/23 15:04:57;;;;;;;3.00;1.13;;;;;;;;;;5031475;28;20063;-81
2021/11/23 15:07:26;;;;;;;0.95;0.60;;;;;;;;;;5021897;28;20033;-83